Impacts TAF Board INFO
FOR SITUATIONAL AWARENESS. NOT TO BE USED FOR FLIGHT PLANNING PURPOSES.
IDs:

KJFK - New York/Kennedy Int, NY, US

Issued at 0539 UTC 16 Dec 2017
Updated at 0655 UTC 16 Dec 2017
Potential Impact None Slight Moderate High
Time<<17/07Z 17/08Z 17/09Z 17/10Z 17/11Z 17/12Z 17/13Z 17/14Z 17/15Z 17/16Z 17/17Z 17/18Z 17/19Z
Type PRVL PRVL PRVL PRVL PRVL
VIS >6 >6 >6 >6 >6
CIG -- -- -- -- --
Cover SCT SCT SCT SCT SCT
FltCat VFR VFR VFR VFR VFR
WX -- -- -- -- --
WDir 340 340 340 340 340
WSpd 8 8 8 8 8
WGst -- -- -- -- --

Raw TAF
KJFK 160539Z 1606/1712 26012G20KT P6SM SCT250
  FM161400 26017G25KT P6SM SCT040 BKN200
  FM161600 27018G26KT P6SM VCSH BKN040 BKN120
  FM162100 27014KT P6SM BKN040 BKN120
  FM170000 31011KT P6SM BKN050
  FM170500 34008KT P6SM SCT050


METAR Board
Radar Display
Forecast Discussion

FOR SITUATIONAL AWARENESS. NOT TO BE USED FOR FLIGHT PLANNING PURPOSES.